KDTN

Shreveport Downtown Airport

Shreveport, Louisiana, USA
METAR KDTN 190553Z AUTO 20013KT 10SM OVC014 19/18 A2971 RMK AO2 SLP059 60003 T01940178 10194 20172 401940056 57009
Observed Flight Rules
Jan-19 @ 05:53 UTC (36 minutes ago) Marginal Visual Flight Rules
Wind Visibility Clouds
200° at 13 knots 10 miles
  • Overcast at 1,400' AGL
Temperatures Readings
Current 19°C / 66°F
Dewpoint 18°C / 64°F
Humidity 94%
Altimeter 29.71" Hg
Pressure 1005.9 hPa
Elevation 53
METAR KDTN 190553Z AUTO 20013KT 10SM OVC014 19/18 A2971 RMK AO2 SLP059 60003 T01940178 10194 20172 401940056 57009
Observed Flight Rules
Jan-19 @ 05:53 UTC
(36 minutes ago)
MVFR
Wind Visibility
200° at 13 knots 10 miles
Clouds
  • Overcast at 1,400' AGL
Temperature Dewpoint
19°C / 66°F 18°C / 64°F
Humidity Altimeter Pressure
94% 29.71" Hg 1005.9 hPa